Time;durP1;ratioP1;P1;durP2;ratioP2;P2;SDS_P1;SDS_P2;PMS_P1;PMS_P2;Temp;Humidity;BMP_temperature;BMP_pressure;BME280_temperature;BME280_humidity;BME280_pressure;Samples;Min_cycle;Max_cycle;Signal;HPM_P1;HPM_P2
2023/07/20 00:01:30;;;;;;;1.10;0.80;;;;;;;16.87;71.44;98669.30;101028;297;24077;-34
2023/07/20 00:03:56;;;;;;;5.00;1.20;;;;;;;16.70;72.81;98669.91;100955;297;25300;-30
2023/07/20 00:06:22;;;;;;;2.30;0.60;;;;;;;16.78;71.61;98666.09;101048;297;24114;-30
2023/07/20 00:08:48;;;;;;;4.40;1.40;;;;;;;16.93;70.56;98660.52;101013;297;22886;-31
2023/07/20 00:11:13;;;;;;;1.70;1.30;;;;;;;16.94;70.29;98639.71;101047;285;22593;-34
2023/07/20 00:13:40;;;;;;;0.90;0.50;;;;;;;17.02;69.17;98641.73;101104;297;22977;-31
2023/07/20 00:16:06;;;;;;;2.60;1.20;;;;;;;17.22;68.81;98660.36;101047;297;22919;-29
2023/07/20 00:18:32;;;;;;;2.20;1.60;;;;;;;17.27;69.64;98666.65;101045;297;27819;-34
2023/07/20 00:20:59;;;;;;;2.50;1.30;;;;;;;17.20;71.48;98661.38;100869;297;22830;-34
2023/07/20 00:23:25;;;;;;;2.50;1.00;;;;;;;17.14;72.81;98659.09;101051;285;25513;-35
2023/07/20 00:25:51;;;;;;;3.50;1.50;;;;;;;17.05;73.81;98658.46;101005;297;28020;-30
2023/07/20 00:28:17;;;;;;;2.10;1.40;;;;;;;16.94;74.43;98653.92;100949;297;23062;-33
2023/07/20 00:30:42;;;;;;;2.50;1.50;;;;;;;16.93;74.63;98646.41;101082;297;22803;-30
2023/07/20 00:33:11;;;;;;;2.10;1.00;;;;;;;17.03;74.99;98648.02;101027;297;22604;-34
2023/07/20 00:35:38;;;;;;;2.40;1.10;;;;;;;17.10;75.72;98658.95;101171;297;25310;-37
2023/07/20 01:19:20;;;;;;;1.50;0.50;;;;;;;-99.23;17.67;19752.29;98288;296;1544046;-34
2023/07/20 01:21:54;;;;;;;4.90;1.60;;;;;;;-128.00;-1.00;-1.00;97656;297;1004018;-30
2023/07/20 01:24:43;;;;;;;2.20;1.20;;;;;;;-128.00;-1.00;-1.00;97929;295;1003321;-35
2023/07/20 01:27:28;;;;;;;1.90;1.30;;;;;;;-128.00;-1.00;-1.00;97968;295;1003180;-34
2023/07/20 01:30:16;;;;;;;1.00;0.70;;;;;;;-128.00;-1.00;-1.00;97944;295;1003695;-34
2023/07/20 01:32:42;;;;;;;12.90;1.40;;;;;;;-128.00;-1.00;-1.00;97923;295;1004430;-29
2023/07/20 01:35:08;;;;;;;3.00;2.30;;;;;;;-128.00;-1.00;-1.00;97879;296;1003174;-30
2023/07/20 01:37:33;;;;;;;9.50;2.00;;;;;;;-128.00;-1.00;-1.00;98095;295;1004828;-32
2023/07/20 01:39:59;;;;;;;2.20;1.50;;;;;;;-128.00;-1.00;-1.00;97810;295;1003618;-37
2023/07/20 01:42:25;;;;;;;2.60;2.00;;;;;;;-128.00;-1.00;-1.00;98034;295;1003084;-37
2023/07/20 01:44:52;;;;;;;2.70;1.60;;;;;;;-128.00;-1.00;-1.00;97984;295;1004223;-35
2023/07/20 01:47:18;;;;;;;5.50;2.30;;;;;;;-128.00;-1.00;-1.00;98237;295;1002638;-31
2023/07/20 01:49:43;;;;;;;2.80;1.60;;;;;;;-128.00;-1.00;-1.00;98102;295;1003346;-32
2023/07/20 01:52:09;;;;;;;4.50;1.80;;;;;;;-128.00;-1.00;-1.00;98145;295;1005043;-32
2023/07/20 01:54:34;;;;;;;3.10;1.60;;;;;;;-128.00;-1.00;-1.00;97742;296;1003137;-32
2023/07/20 01:57:00;;;;;;;1.80;1.60;;;;;;;-128.00;-1.00;-1.00;97966;295;1004480;-36
2023/07/20 01:59:25;;;;;;;3.20;1.90;;;;;;;-128.00;-1.00;-1.00;98055;287;1004841;-32
2023/07/20 02:01:52;;;;;;;7.80;1.60;;;;;;;-128.00;-1.00;-1.00;97886;295;1002833;-36
2023/07/20 02:04:18;;;;;;;4.40;2.00;;;;;;;-128.00;-1.00;-1.00;98110;295;1003361;-38
2023/07/20 02:06:43;;;;;;;2.70;1.40;;;;;;;-128.00;-1.00;-1.00;97941;295;1003074;-40
2023/07/20 02:09:09;;;;;;;0.80;0.70;;;;;;;-128.00;-1.00;-1.00;97872;285;1003322;-36
2023/07/20 02:11:35;;;;;;;3.60;1.30;;;;;;;-128.00;-1.00;-1.00;97864;295;1003230;-32
2023/07/20 02:14:00;;;;;;;1.60;1.00;;;;;;;-128.00;-1.00;-1.00;97886;295;1003536;-32
2023/07/20 02:16:27;;;;;;;2.20;1.30;;;;;;;-128.00;-1.00;-1.00;98003;295;1003417;-35
2023/07/20 02:18:53;;;;;;;3.90;1.50;;;;;;;-128.00;-1.00;-1.00;98003;295;1003318;-36
2023/07/20 02:21:18;;;;;;;1.40;1.10;;;;;;;-128.00;-1.00;-1.00;97769;295;1003088;-32
2023/07/20 02:23:44;;;;;;;1.90;1.00;;;;;;;-128.00;-1.00;-1.00;97975;295;1002878;-36
2023/07/20 02:26:10;;;;;;;3.60;1.50;;;;;;;-128.00;-1.00;-1.00;97941;295;1003444;-35
2023/07/20 02:28:35;;;;;;;1.40;1.00;;;;;;;-128.00;-1.00;-1.00;98048;295;1002956;-32
2023/07/20 02:31:01;;;;;;;2.00;0.90;;;;;;;-128.00;-1.00;-1.00;97849;295;1003920;-32
2023/07/20 02:33:26;;;;;;;1.90;1.20;;;;;;;-128.00;-1.00;-1.00;97788;295;1003401;-36
2023/07/20 02:35:52;;;;;;;3.70;1.00;;;;;;;-128.00;-1.00;-1.00;97859;296;1003756;-34
2023/07/20 02:38:18;;;;;;;2.70;1.60;;;;;;;-128.00;-1.00;-1.00;97843;288;1003036;-36
2023/07/20 02:40:43;;;;;;;2.40;1.40;;;;;;;-128.00;-1.00;-1.00;97859;295;1003865;-32
2023/07/20 02:43:09;;;;;;;11.10;2.10;;;;;;;-128.00;-1.00;-1.00;97815;295;1003308;-36
2023/07/20 02:45:35;;;;;;;1.90;1.00;;;;;;;-128.00;-1.00;-1.00;97777;284;1002995;-39
2023/07/20 02:48:01;;;;;;;2.30;1.50;;;;;;;-128.00;-1.00;-1.00;97935;295;1003233;-35
2023/07/20 02:50:26;;;;;;;10.60;1.70;;;;;;;-128.00;-1.00;-1.00;97961;295;1003120;-37
2023/07/20 02:52:52;;;;;;;2.10;1.60;;;;;;;-128.00;-1.00;-1.00;97830;295;1004703;-31
2023/07/20 02:55:17;;;;;;;2.30;0.90;;;;;;;-128.00;-1.00;-1.00;97957;295;1004521;-32
2023/07/20 02:57:43;;;;;;;1.30;1.00;;;;;;;-128.00;-1.00;-1.00;97832;295;1002843;-32
2023/07/20 03:00:09;;;;;;;8.70;1.40;;;;;;;-128.00;-1.00;-1.00;97917;288;1004208;-37
2023/07/20 03:02:35;;;;;;;1.10;0.90;;;;;;;-128.00;-1.00;-1.00;97962;295;1003726;-32
2023/07/20 03:05:02;;;;;;;2.10;1.30;;;;;;;-128.00;-1.00;-1.00;97859;295;1003348;-38
2023/07/20 03:07:28;;;;;;;2.00;1.20;;;;;;;-128.00;-1.00;-1.00;97920;295;1003261;-31
2023/07/20 03:09:55;;;;;;;1.00;0.70;;;;;;;-128.00;-1.00;-1.00;98004;295;1003854;-36
2023/07/20 03:12:21;;;;;;;2.60;1.10;;;;;;;-128.00;-1.00;-1.00;98066;295;1004730;-35
2023/07/20 03:14:47;;;;;;;4.30;1.00;;;;;;;-128.00;-1.00;-1.00;97901;288;1004284;-32
2023/07/20 03:17:12;;;;;;;1.90;1.30;;;;;;;-128.00;-1.00;-1.00;97853;295;1002965;-37
2023/07/20 03:19:38;;;;;;;1.40;0.80;;;;;;;-128.00;-1.00;-1.00;97903;295;1003614;-32
2023/07/20 03:22:04;;;;;;;5.40;1.90;;;;;;;-128.00;-1.00;-1.00;97768;336;1003834;-35
2023/07/20 03:24:29;;;;;;;6.30;1.30;;;;;;;-128.00;-1.00;-1.00;97854;295;1003522;-36
2023/07/20 03:26:55;;;;;;;2.00;1.30;;;;;;;-128.00;-1.00;-1.00;97969;296;1005420;-31
2023/07/20 03:29:21;;;;;;;6.50;1.30;;;;;;;-128.00;-1.00;-1.00;97973;295;1004233;-37
2023/07/20 03:31:46;;;;;;;3.10;1.90;;;;;;;-128.00;-1.00;-1.00;97934;288;1003191;-37
2023/07/20 03:34:12;;;;;;;4.50;2.00;;;;;;;-128.00;-1.00;-1.00;98032;295;1004000;-40
2023/07/20 03:36:37;;;;;;;6.20;1.60;;;;;;;-128.00;-1.00;-1.00;97933;295;1002898;-36
2023/07/20 03:39:03;;;;;;;11.80;1.00;;;;;;;-128.00;-1.00;-1.00;97858;295;1003852;-36
2023/07/20 03:41:29;;;;;;;5.70;1.40;;;;;;;-128.00;-1.00;-1.00;97896;288;1004535;-32
2023/07/20 03:43:54;;;;;;;2.90;1.20;;;;;;;-128.00;-1.00;-1.00;97865;295;1003044;-36
2023/07/20 03:46:20;;;;;;;3.80;1.80;;;;;;;-128.00;-1.00;-1.00;97886;291;1003712;-36
2023/07/20 03:48:46;;;;;;;1.40;1.00;;;;;;;-128.00;-1.00;-1.00;97929;295;1003091;-31
2023/07/20 03:51:11;;;;;;;6.80;2.10;;;;;;;-128.00;-1.00;-1.00;97822;295;1004799;-38
2023/07/20 03:53:37;;;;;;;4.10;2.10;;;;;;;-128.00;-1.00;-1.00;97801;296;1003991;-36
2023/07/20 03:56:03;;;;;;;3.50;1.70;;;;;;;-128.00;-1.00;-1.00;97854;295;1003227;-33
2023/07/20 03:58:30;;;;;;;2.20;1.70;;;;;;;-128.00;-1.00;-1.00;97964;295;1003881;-34
2023/07/20 04:00:56;;;;;;;5.30;1.90;;;;;;;-128.00;-1.00;-1.00;97846;288;1003455;-36
2023/07/20 04:03:24;;;;;;;2.00;1.30;;;;;;;-128.00;-1.00;-1.00;97921;295;1003695;-32
2023/07/20 04:05:50;;;;;;;5.50;1.80;;;;;;;-128.00;-1.00;-1.00;97839;295;1003014;-36
2023/07/20 04:08:15;;;;;;;2.70;1.80;;;;;;;-128.00;-1.00;-1.00;97885;295;1002586;-34
2023/07/20 04:10:44;;;;;;;2.00;1.30;;;;;;;-128.00;-1.00;-1.00;97946;295;1003083;-36
2023/07/20 04:13:10;;;;;;;2.40;1.60;;;;;;;-128.00;-1.00;-1.00;97934;295;1003577;-36
2023/07/20 04:15:36;;;;;;;2.70;1.10;;;;;;;-128.00;-1.00;-1.00;98030;295;1004305;-32
2023/07/20 04:18:02;;;;;;;3.90;1.30;;;;;;;-128.00;-1.00;-1.00;97842;288;1004216;-32
2023/07/20 04:20:27;;;;;;;1.50;1.20;;;;;;;-128.00;-1.00;-1.00;97992;295;1002958;-32
2023/07/20 04:22:53;;;;;;;2.20;0.90;;;;;;;-128.00;-1.00;-1.00;97877;295;1003208;-36
2023/07/20 04:25:19;;;;;;;2.90;1.10;;;;;;;-128.00;-1.00;-1.00;97807;295;1003853;-39
2023/07/20 04:27:45;;;;;;;8.40;1.40;;;;;;;-128.00;-1.00;-1.00;97812;284;1002662;-34
2023/07/20 04:30:11;;;;;;;1.80;1.20;;;;;;;-128.00;-1.00;-1.00;97831;295;1003651;-36
2023/07/20 04:32:38;;;;;;;2.10;1.10;;;;;;;-128.00;-1.00;-1.00;97930;295;1003261;-32
2023/07/20 04:35:07;;;;;;;1.50;1.00;;;;;;;-128.00;-1.00;-1.00;97926;295;1003964;-36
2023/07/20 04:37:33;;;;;;;1.50;1.10;;;;;;;-128.00;-1.00;-1.00;97870;284;1002935;-32
2023/07/20 04:39:59;;;;;;;4.50;1.50;;;;;;;-128.00;-1.00;-1.00;97943;295;1004787;-41
2023/07/20 04:42:24;;;;;;;5.10;1.20;;;;;;;-128.00;-1.00;-1.00;97986;295;1003324;-33
2023/07/20 04:44:50;;;;;;;3.30;1.20;;;;;;;-128.00;-1.00;-1.00;97897;295;1003815;-41
2023/07/20 04:47:16;;;;;;;2.80;1.10;;;;;;;-128.00;-1.00;-1.00;97873;295;1002817;-37
2023/07/20 04:49:42;;;;;;;1.50;0.80;;;;;;;-128.00;-1.00;-1.00;97921;296;1002983;-31
2023/07/20 04:52:08;;;;;;;2.80;1.20;;;;;;;-128.00;-1.00;-1.00;97881;296;1002913;-36
2023/07/20 04:54:33;;;;;;;3.20;1.00;;;;;;;-128.00;-1.00;-1.00;97744;296;1003943;-36
2023/07/20 04:56:59;;;;;;;2.10;1.50;;;;;;;-128.00;-1.00;-1.00;97788;295;1003649;-33
2023/07/20 04:59:25;;;;;;;2.50;1.20;;;;;;;-128.00;-1.00;-1.00;97930;295;1003705;-39
2023/07/20 05:01:51;;;;;;;1.00;0.70;;;;;;;-128.00;-1.00;-1.00;97860;296;1003788;-36
2023/07/20 05:04:17;;;;;;;3.00;1.20;;;;;;;-128.00;-1.00;-1.00;97784;296;1003492;-31
2023/07/20 05:06:43;;;;;;;3.30;1.10;;;;;;;-128.00;-1.00;-1.00;97812;296;1002941;-36
2023/07/20 05:09:09;;;;;;;5.40;2.70;;;;;;;-128.00;-1.00;-1.00;97761;296;1003043;-32
2023/07/20 05:11:34;;;;;;;7.00;5.80;;;;;;;-128.00;-1.00;-1.00;97913;296;1004011;-31
2023/07/20 05:14:00;;;;;;;11.10;7.70;;;;;;;-128.00;-1.00;-1.00;97841;284;1003737;-31
2023/07/20 05:16:26;;;;;;;6.90;2.50;;;;;;;-128.00;-1.00;-1.00;97839;295;1002900;-36
2023/07/20 05:18:53;;;;;;;2.30;1.40;;;;;;;-128.00;-1.00;-1.00;97915;296;1002822;-31
2023/07/20 05:21:18;;;;;;;1.20;0.70;;;;;;;-128.00;-1.00;-1.00;97899;295;1003135;-36
2023/07/20 05:23:45;;;;;;;3.70;3.10;;;;;;;-128.00;-1.00;-1.00;97881;288;1003084;-39
2023/07/20 05:26:10;;;;;;;4.10;2.40;;;;;;;-128.00;-1.00;-1.00;97837;296;1003223;-31
2023/07/20 05:28:36;;;;;;;3.10;1.00;;;;;;;-128.00;-1.00;-1.00;97998;296;1003500;-30
2023/07/20 05:31:05;;;;;;;1.70;1.10;;;;;;;-128.00;-1.00;-1.00;97831;296;1003341;-38
2023/07/20 05:33:31;;;;;;;1.50;1.10;;;;;;;-128.00;-1.00;-1.00;97920;296;1003219;-31
2023/07/20 05:35:56;;;;;;;2.10;1.20;;;;;;;-128.00;-1.00;-1.00;97828;296;1003118;-30
2023/07/20 05:38:22;;;;;;;3.60;1.60;;;;;;;-128.00;-1.00;-1.00;97859;296;1003356;-31
2023/07/20 05:40:48;;;;;;;8.50;2.70;;;;;;;-128.00;-1.00;-1.00;97944;296;1004299;-30
2023/07/20 05:43:14;;;;;;;7.10;4.90;;;;;;;-128.00;-1.00;-1.00;97982;296;1003322;-32
2023/07/20 05:45:42;;;;;;;28.50;8.70;;;;;;;-128.00;-1.00;-1.00;97764;288;1003624;-36
2023/07/20 05:48:11;;;;;;;13.20;2.40;;;;;;;-128.00;-1.00;-1.00;97829;296;1004282;-31
2023/07/20 05:50:38;;;;;;;3.50;2.40;;;;;;;-128.00;-1.00;-1.00;97902;296;1002753;-31
2023/07/20 05:53:03;;;;;;;2.10;1.30;;;;;;;-128.00;-1.00;-1.00;97887;296;1003238;-31
2023/07/20 05:55:29;;;;;;;1.40;0.90;;;;;;;-128.00;-1.00;-1.00;97989;295;1004434;-32
2023/07/20 05:57:55;;;;;;;3.50;2.30;;;;;;;-128.00;-1.00;-1.00;97878;284;1004298;-35
2023/07/20 06:00:26;;;;;;;3.50;2.20;;;;;;;-128.00;-1.00;-1.00;97803;295;1003359;-31
2023/07/20 06:02:53;;;;;;;3.40;1.90;;;;;;;-128.00;-1.00;-1.00;97809;295;1003182;-35
2023/07/20 06:05:20;;;;;;;6.30;5.00;;;;;;;-128.00;-1.00;-1.00;97733;295;1003454;-35
2023/07/20 06:07:46;;;;;;;5.20;2.80;;;;;;;-128.00;-1.00;-1.00;98016;295;1002586;-35
2023/07/20 06:10:12;;;;;;;3.30;1.70;;;;;;;-128.00;-1.00;-1.00;97839;295;1003958;-33
2023/07/20 06:12:38;;;;;;;4.70;2.40;;;;;;;-128.00;-1.00;-1.00;97993;295;1003264;-32
2023/07/20 06:15:05;;;;;;;8.60;2.80;;;;;;;-128.00;-1.00;-1.00;97782;296;1003594;-37
2023/07/20 06:17:31;;;;;;;35.30;1.70;;;;;;;-128.00;-1.00;-1.00;97933;295;1005065;-33
2023/07/20 06:19:56;;;;;;;3.00;1.40;;;;;;;-128.00;-1.00;-1.00;97812;284;1003128;-32
2023/07/20 06:22:22;;;;;;;2.90;2.40;;;;;;;-128.00;-1.00;-1.00;97852;295;1003810;-32
2023/07/20 06:24:48;;;;;;;2.80;2.30;;;;;;;-128.00;-1.00;-1.00;97826;288;1003375;-33
2023/07/20 06:27:15;;;;;;;1.90;1.50;;;;;;;-128.00;-1.00;-1.00;97826;288;1003637;-31
2023/07/20 06:29:41;;;;;;;1.00;0.90;;;;;;;-128.00;-1.00;-1.00;97835;295;1003254;-33
2023/07/20 06:32:08;;;;;;;1.60;1.30;;;;;;;-128.00;-1.00;-1.00;97811;284;1003171;-34
2023/07/20 06:34:36;;;;;;;2.00;1.30;;;;;;;-128.00;-1.00;-1.00;98030;295;1004632;-30
2023/07/20 06:37:04;;;;;;;3.00;2.70;;;;;;;-128.00;-1.00;-1.00;97773;295;1002820;-31
2023/07/20 06:39:30;;;;;;;14.90;2.80;;;;;;;-128.00;-1.00;-1.00;97861;284;1005038;-31
2023/07/20 06:41:55;;;;;;;2.90;2.30;;;;;;;-128.00;-1.00;-1.00;97800;295;1003063;-31
2023/07/20 06:44:21;;;;;;;7.80;2.60;;;;;;;-128.00;-1.00;-1.00;97865;296;1004957;-32
2023/07/20 06:46:47;;;;;;;4.30;2.20;;;;;;;-128.00;-1.00;-1.00;97809;295;1003370;-32
2023/07/20 06:49:25;;;;;;;9.00;2.20;;;;;;;-128.00;-1.00;-1.00;97992;295;1003986;-35
2023/07/20 06:51:51;;;;;;;2.60;1.60;;;;;;;-128.00;-1.00;-1.00;98036;295;1003428;-38
2023/07/20 06:54:16;;;;;;;1.30;1.10;;;;;;;-128.00;-1.00;-1.00;98043;295;1003029;-36
2023/07/20 06:56:42;;;;;;;1.50;1.30;;;;;;;-128.00;-1.00;-1.00;97828;295;1003633;-35
2023/07/20 06:59:08;;;;;;;3.80;1.70;;;;;;;-128.00;-1.00;-1.00;97883;295;1003460;-35
2023/07/20 07:01:33;;;;;;;3.00;1.60;;;;;;;-128.00;-1.00;-1.00;97870;295;1003101;-35
2023/07/20 07:03:59;;;;;;;1.70;0.90;;;;;;;-128.00;-1.00;-1.00;97845;295;1003905;-31
2023/07/20 07:06:25;;;;;;;1.10;0.70;;;;;;;-128.00;-1.00;-1.00;97883;295;1003430;-31
2023/07/20 07:08:50;;;;;;;2.10;1.50;;;;;;;-128.00;-1.00;-1.00;97815;295;1003566;-35
2023/07/20 07:11:16;;;;;;;1.20;1.00;;;;;;;-128.00;-1.00;-1.00;97879;295;1003055;-35
2023/07/20 07:13:41;;;;;;;3.90;1.40;;;;;;;-128.00;-1.00;-1.00;97916;295;1003763;-31
2023/07/20 07:16:07;;;;;;;3.50;1.50;;;;;;;-128.00;-1.00;-1.00;97783;295;1003678;-35
2023/07/20 07:18:33;;;;;;;2.00;1.30;;;;;;;-128.00;-1.00;-1.00;97836;295;1004620;-33
2023/07/20 07:20:59;;;;;;;3.40;1.40;;;;;;;-128.00;-1.00;-1.00;97802;295;1003362;-32
2023/07/20 07:23:24;;;;;;;1.00;0.50;;;;;;;-128.00;-1.00;-1.00;97854;295;1003511;-34
2023/07/20 07:25:50;;;;;;;1.80;1.50;;;;;;;-128.00;-1.00;-1.00;97921;295;1004616;-33
2023/07/20 07:28:16;;;;;;;1.30;0.90;;;;;;;-128.00;-1.00;-1.00;97966;295;1004439;-31
2023/07/20 07:30:41;;;;;;;2.50;1.50;;;;;;;-128.00;-1.00;-1.00;97774;295;1003178;-31
2023/07/20 07:33:08;;;;;;;1.60;1.20;;;;;;;-128.00;-1.00;-1.00;97779;295;1004196;-36
2023/07/20 07:35:34;;;;;;;1.50;0.90;;;;;;;-128.00;-1.00;-1.00;97808;296;1002730;-32
2023/07/20 07:37:59;;;;;;;2.10;1.30;;;;;;;-128.00;-1.00;-1.00;97845;288;1003316;-35
2023/07/20 07:40:25;;;;;;;1.30;1.00;;;;;;;-128.00;-1.00;-1.00;97841;295;1003461;-30
2023/07/20 07:42:50;;;;;;;1.60;1.00;;;;;;;-128.00;-1.00;-1.00;97811;295;1003818;-35
2023/07/20 07:45:16;;;;;;;1.70;0.60;;;;;;;-128.00;-1.00;-1.00;97830;288;1002907;-33
2023/07/20 07:47:42;;;;;;;1.80;1.30;;;;;;;-128.00;-1.00;-1.00;97987;295;1004043;-33
2023/07/20 07:50:09;;;;;;;1.70;1.30;;;;;;;-128.00;-1.00;-1.00;97935;288;1003580;-37
2023/07/20 07:52:34;;;;;;;3.10;0.80;;;;;;;-128.00;-1.00;-1.00;98004;295;1003128;-35
2023/07/20 07:55:00;;;;;;;3.10;1.10;;;;;;;-128.00;-1.00;-1.00;97974;295;1003432;-36
2023/07/20 07:57:26;;;;;;;0.90;0.70;;;;;;;-128.00;-1.00;-1.00;97774;288;1003271;-36
2023/07/20 07:59:51;;;;;;;2.30;1.60;;;;;;;-128.00;-1.00;-1.00;97903;295;1003605;-31
2023/07/20 08:02:17;;;;;;;0.80;0.60;;;;;;;-128.00;-1.00;-1.00;97868;295;1004611;-31
2023/07/20 08:04:42;;;;;;;1.10;0.90;;;;;;;-128.00;-1.00;-1.00;97967;288;1003643;-35
2023/07/20 08:07:08;;;;;;;1.00;0.50;;;;;;;-128.00;-1.00;-1.00;97904;296;1004606;-35
2023/07/20 08:09:34;;;;;;;5.40;1.60;;;;;;;-128.00;-1.00;-1.00;97861;288;1003798;-35
2023/07/20 08:11:59;;;;;;;2.00;1.10;;;;;;;-128.00;-1.00;-1.00;97841;295;1003742;-31
2023/07/20 08:14:25;;;;;;;2.00;1.30;;;;;;;-128.00;-1.00;-1.00;97915;295;1003252;-35
2023/07/20 08:16:51;;;;;;;3.10;1.30;;;;;;;-128.00;-1.00;-1.00;97822;295;1002619;-31
2023/07/20 08:19:17;;;;;;;1.70;0.80;;;;;;;-128.00;-1.00;-1.00;97851;288;1003570;-33
2023/07/20 08:21:43;;;;;;;1.70;1.00;;;;;;;-128.00;-1.00;-1.00;97920;295;1003595;-31
2023/07/20 08:24:08;;;;;;;1.30;0.80;;;;;;;-128.00;-1.00;-1.00;97873;295;1003707;-35
2023/07/20 08:26:34;;;;;;;1.50;0.80;;;;;;;-128.00;-1.00;-1.00;97771;295;1003564;-34
2023/07/20 08:29:02;;;;;;;2.50;1.40;;;;;;;-128.00;-1.00;-1.00;97870;296;1003326;-35
2023/07/20 08:31:28;;;;;;;2.70;1.20;;;;;;;-128.00;-1.00;-1.00;97809;295;1005356;-35
2023/07/20 08:33:53;;;;;;;1.20;0.80;;;;;;;-128.00;-1.00;-1.00;97819;295;1004413;-35
2023/07/20 08:36:19;;;;;;;0.90;0.80;;;;;;;-128.00;-1.00;-1.00;97892;295;1003557;-31
2023/07/20 08:38:44;;;;;;;1.00;0.60;;;;;;;-128.00;-1.00;-1.00;97750;296;1003238;-30
2023/07/20 08:41:10;;;;;;;0.70;0.60;;;;;;;-128.00;-1.00;-1.00;97785;295;1004088;-35
2023/07/20 08:43:36;;;;;;;2.40;0.80;;;;;;;-128.00;-1.00;-1.00;97793;296;1002834;-31
2023/07/20 08:46:02;;;;;;;1.30;0.80;;;;;;;-128.00;-1.00;-1.00;97860;295;1003637;-37
2023/07/20 08:48:28;;;;;;;1.20;0.80;;;;;;;-128.00;-1.00;-1.00;97900;288;1003215;-35
2023/07/20 08:50:54;;;;;;;1.90;0.90;;;;;;;-128.00;-1.00;-1.00;97820;295;1003543;-31
2023/07/20 08:53:20;;;;;;;2.10;1.00;;;;;;;-128.00;-1.00;-1.00;97775;295;1003102;-31
2023/07/20 08:55:47;;;;;;;0.90;0.70;;;;;;;-128.00;-1.00;-1.00;97889;296;1004338;-34
2023/07/20 08:58:12;;;;;;;4.60;0.70;;;;;;;-128.00;-1.00;-1.00;97801;295;1002572;-30
2023/07/20 09:00:38;;;;;;;1.90;0.90;;;;;;;-128.00;-1.00;-1.00;97873;296;1003619;-35
2023/07/20 09:03:04;;;;;;;3.20;1.30;;;;;;;-128.00;-1.00;-1.00;97891;295;1004982;-31
2023/07/20 09:05:29;;;;;;;8.50;1.30;;;;;;;-128.00;-1.00;-1.00;97899;295;1002758;-31
2023/07/20 09:07:55;;;;;;;1.00;0.90;;;;;;;-128.00;-1.00;-1.00;97837;295;1003647;-35
2023/07/20 09:10:21;;;;;;;2.90;1.10;;;;;;;-128.00;-1.00;-1.00;97883;295;1004308;-31
2023/07/20 09:12:47;;;;;;;1.00;0.70;;;;;;;-128.00;-1.00;-1.00;97962;295;1003169;-34
2023/07/20 09:15:13;;;;;;;3.60;1.00;;;;;;;-128.00;-1.00;-1.00;97789;295;1004423;-33
2023/07/20 09:17:39;;;;;;;1.20;0.70;;;;;;;-128.00;-1.00;-1.00;97822;295;1004664;-33
2023/07/20 09:20:08;;;;;;;3.70;0.60;;;;;;;-128.00;-1.00;-1.00;97814;295;1003785;-31
2023/07/20 09:22:33;;;;;;;0.80;0.50;;;;;;;-128.00;-1.00;-1.00;97424;285;1003642;-31
2023/07/20 09:24:59;;;;;;;0.70;0.60;;;;;;;-128.00;-1.00;-1.00;97954;285;1004902;-31
2023/07/20 09:27:41;;;;;;;2.00;1.00;;;;;;;-128.00;-1.00;-1.00;97882;295;1002870;-35
2023/07/20 09:30:09;;;;;;;0.90;0.70;;;;;;;-128.00;-1.00;-1.00;97956;284;1003672;-30
2023/07/20 09:32:46;;;;;;;1.50;0.90;;;;;;;-128.00;-1.00;-1.00;97849;295;1004760;-31
2023/07/20 09:35:15;;;;;;;1.40;0.80;;;;;;;-128.00;-1.00;-1.00;97846;295;1003641;-31
2023/07/20 09:37:48;;;;;;;1.90;0.80;;;;;;;-128.00;-1.00;-1.00;97924;295;1004014;-35
2023/07/20 09:40:16;;;;;;;3.10;0.80;;;;;;;-128.00;-1.00;-1.00;97848;295;1004474;-32
2023/07/20 09:42:42;;;;;;;0.50;0.40;;;;;;;-128.00;-1.00;-1.00;97903;295;1003226;-32
2023/07/20 09:45:09;;;;;;;1.40;1.10;;;;;;;-128.00;-1.00;-1.00;97918;295;1003833;-31
2023/07/20 09:47:38;;;;;;;10.20;0.80;;;;;;;-128.00;-1.00;-1.00;97879;295;1003331;-31
2023/07/20 09:50:04;;;;;;;1.00;0.70;;;;;;;-128.00;-1.00;-1.00;97779;284;1002810;-31
2023/07/20 09:52:31;;;;;;;2.50;0.60;;;;;;;-128.00;-1.00;-1.00;97861;295;1002983;-35
2023/07/20 09:54:57;;;;;;;1.80;1.00;;;;;;;-128.00;-1.00;-1.00;97803;295;1004007;-35
2023/07/20 09:57:22;;;;;;;1.50;0.40;;;;;;;-128.00;-1.00;-1.00;97830;295;1002922;-35
2023/07/20 09:59:48;;;;;;;1.20;0.70;;;;;;;-128.00;-1.00;-1.00;97795;295;1003572;-31
2023/07/20 10:02:21;;;;;;;0.90;0.80;;;;;;;-128.00;-1.00;-1.00;97887;284;1002804;-34
2023/07/20 10:04:48;;;;;;;1.80;0.40;;;;;;;-128.00;-1.00;-1.00;97875;295;1003132;-30
2023/07/20 10:07:14;;;;;;;0.50;0.30;;;;;;;-128.00;-1.00;-1.00;97877;295;1003159;-36
2023/07/20 10:09:40;;;;;;;2.40;0.80;;;;;;;-128.00;-1.00;-1.00;97905;295;1002984;-35
2023/07/20 10:12:07;;;;;;;2.50;1.00;;;;;;;-128.00;-1.00;-1.00;97805;284;1003580;-31
2023/07/20 10:14:34;;;;;;;1.60;0.50;;;;;;;-128.00;-1.00;-1.00;97881;295;1003137;-30
2023/07/20 10:17:00;;;;;;;1.90;0.90;;;;;;;-128.00;-1.00;-1.00;97931;295;1003187;-35
2023/07/20 10:19:47;;;;;;;7.30;1.10;;;;;;;-128.00;-1.00;-1.00;97917;284;1003366;-34
2023/07/20 10:22:16;;;;;;;2.40;0.80;;;;;;;-128.00;-1.00;-1.00;97944;295;1002914;-35
2023/07/20 10:24:45;;;;;;;2.30;1.10;;;;;;;-128.00;-1.00;-1.00;97973;295;1004331;-30
2023/07/20 10:27:10;;;;;;;0.80;0.70;;;;;;;-128.00;-1.00;-1.00;97800;297;1003318;-34
2023/07/20 10:29:36;;;;;;;8.20;1.10;;;;;;;-128.00;-1.00;-1.00;97857;295;1003498;-34
2023/07/20 10:32:02;;;;;;;1.10;0.70;;;;;;;-128.00;-1.00;-1.00;97794;284;1003021;-34
2023/07/20 10:34:28;;;;;;;1.80;1.50;;;;;;;-128.00;-1.00;-1.00;97838;295;1003576;-34
2023/07/20 10:36:54;;;;;;;0.70;0.50;;;;;;;-128.00;-1.00;-1.00;97781;297;1003901;-35
2023/07/20 10:39:25;;;;;;;1.20;0.80;;;;;;;-128.00;-1.00;-1.00;97791;296;1002795;-32
2023/07/20 10:42:00;;;;;;;2.30;1.20;;;;;;;-128.00;-1.00;-1.00;97864;295;1002826;-35
2023/07/20 10:44:26;;;;;;;1.60;0.90;;;;;;;-128.00;-1.00;-1.00;97935;295;1003918;-35
2023/07/20 10:46:52;;;;;;;5.80;1.00;;;;;;;-128.00;-1.00;-1.00;97946;295;1003223;-32
2023/07/20 10:49:21;;;;;;;1.20;0.90;;;;;;;-128.00;-1.00;-1.00;97727;295;1003456;-31
2023/07/20 10:51:48;;;;;;;1.60;1.10;;;;;;;-128.00;-1.00;-1.00;97829;295;1003362;-35
2023/07/20 10:54:34;;;;;;;1.40;0.90;;;;;;;-128.00;-1.00;-1.00;97919;295;1003680;-35
2023/07/20 10:57:24;;;;;;;4.50;1.20;;;;;;;-128.00;-1.00;-1.00;97801;295;1003479;-30
2023/07/20 10:59:49;;;;;;;2.30;1.00;;;;;;;-128.00;-1.00;-1.00;97909;295;1003244;-34
2023/07/20 11:02:17;;;;;;;4.80;1.00;;;;;;;-128.00;-1.00;-1.00;97814;295;1003977;-35
2023/07/20 11:04:44;;;;;;;13.00;0.90;;;;;;;-128.00;-1.00;-1.00;97804;295;1003254;-35
2023/07/20 11:07:11;;;;;;;6.00;1.90;;;;;;;-128.00;-1.00;-1.00;97830;295;1002947;-33
2023/07/20 11:09:38;;;;;;;1.40;1.00;;;;;;;-128.00;-1.00;-1.00;97981;295;1004494;-32
2023/07/20 11:12:09;;;;;;;1.60;1.10;;;;;;;-128.00;-1.00;-1.00;97863;284;1003108;-30
2023/07/20 11:14:35;;;;;;;1.50;1.00;;;;;;;-128.00;-1.00;-1.00;97728;295;1003123;-31
2023/07/20 11:17:11;;;;;;;1.60;0.70;;;;;;;-128.00;-1.00;-1.00;97776;295;1003528;-35
2023/07/20 11:19:37;;;;;;;3.30;0.80;;;;;;;-128.00;-1.00;-1.00;97831;295;1003692;-30
2023/07/20 11:22:04;;;;;;;8.80;0.70;;;;;;;-128.00;-1.00;-1.00;97999;295;1003739;-35
2023/07/20 11:24:30;;;;;;;1.30;0.40;;;;;;;-128.00;-1.00;-1.00;97975;295;1004248;-35
2023/07/20 11:26:56;;;;;;;1.30;1.00;;;;;;;-128.00;-1.00;-1.00;97868;295;1004908;-35
2023/07/20 11:29:22;;;;;;;0.20;0.20;;;;;;;-128.00;-1.00;-1.00;97792;288;1003026;-30
2023/07/20 11:31:48;;;;;;;0.60;0.40;;;;;;;-128.00;-1.00;-1.00;97867;295;1002911;-29
2023/07/20 11:34:15;;;;;;;1.00;0.80;;;;;;;-128.00;-1.00;-1.00;97887;295;1002817;-35
2023/07/20 11:36:42;;;;;;;3.40;0.80;;;;;;;-128.00;-1.00;-1.00;97838;296;1003308;-33
2023/07/20 11:39:09;;;;;;;0.80;0.30;;;;;;;-128.00;-1.00;-1.00;97896;295;1003497;-35
2023/07/20 11:41:35;;;;;;;1.10;0.20;;;;;;;-128.00;-1.00;-1.00;97887;295;1004129;-31
2023/07/20 11:44:00;;;;;;;1.90;0.30;;;;;;;-128.00;-1.00;-1.00;97909;295;1004165;-31
2023/07/20 11:46:28;;;;;;;1.70;0.60;;;;;;;-128.00;-1.00;-1.00;97885;295;1002868;-31
2023/07/20 11:48:59;;;;;;;0.70;0.30;;;;;;;-128.00;-1.00;-1.00;97855;295;1003583;-30
2023/07/20 11:51:26;;;;;;;0.30;0.20;;;;;;;-128.00;-1.00;-1.00;97868;295;1002997;-30
2023/07/20 11:53:51;;;;;;;0.40;0.30;;;;;;;-128.00;-1.00;-1.00;97859;295;1003796;-35
2023/07/20 11:56:17;;;;;;;1.40;0.30;;;;;;;-128.00;-1.00;-1.00;97860;295;1002748;-35
2023/07/20 11:58:44;;;;;;;1.20;0.60;;;;;;;-128.00;-1.00;-1.00;97884;295;1004301;-30
2023/07/20 12:01:14;;;;;;;0.20;0.20;;;;;;;-128.00;-1.00;-1.00;97880;295;1003008;-30
2023/07/20 12:03:42;;;;;;;0.50;0.20;;;;;;;-128.00;-1.00;-1.00;97922;295;1003605;-34
2023/07/20 12:06:11;;;;;;;0.70;0.50;;;;;;;-128.00;-1.00;-1.00;97885;295;1003052;-32
2023/07/20 12:08:41;;;;;;;0.60;0.50;;;;;;;-128.00;-1.00;-1.00;97918;295;1002729;-30
2023/07/20 12:11:07;;;;;;;1.00;0.30;;;;;;;-128.00;-1.00;-1.00;97902;295;1003319;-31
2023/07/20 12:13:44;;;;;;;0.20;0.20;;;;;;;-128.00;-1.00;-1.00;97923;295;1003097;-31